Time;durP1;ratioP1;P1;durP2;ratioP2;P2;SDS_P1;SDS_P2;PMS_P1;PMS_P2;Temp;Humidity;BMP_temperature;BMP_pressure;BME280_temperature;BME280_humidity;BME280_pressure;Samples;Min_cycle;Max_cycle;Signal;HPM_P1;HPM_P2
2021/12/20 00:01:01;;;;;;;80.85;28.63;;;2.20;99.90;;;;;;4974606;28;20066;-85
2021/12/20 00:03:27;;;;;;;72.70;26.80;;;2.20;99.90;;;;;;4974588;28;20133;-85
2021/12/20 00:05:52;;;;;;;68.05;26.70;;;2.20;99.90;;;;;;4974249;28;20078;-85
2021/12/20 00:08:18;;;;;;;64.18;25.50;;;2.20;99.90;;;;;;4958252;28;20493;-84
2021/12/20 00:10:44;;;;;;;66.03;25.88;;;2.20;99.90;;;;;;4974148;28;20035;-85
2021/12/20 00:13:09;;;;;;;69.97;25.73;;;2.30;99.90;;;;;;4973595;28;20031;-84
2021/12/20 00:15:35;;;;;;;72.32;27.90;;;2.20;99.90;;;;;;4973682;28;20491;-84
2021/12/20 00:18:01;;;;;;;68.10;25.70;;;2.20;99.90;;;;;;4957691;28;20061;-84
2021/12/20 00:20:27;;;;;;;72.60;25.88;;;2.20;99.90;;;;;;4973710;28;20403;-85
2021/12/20 00:22:53;;;;;;;71.00;26.75;;;2.10;99.90;;;;;;4973674;28;20605;-84
2021/12/20 00:25:19;;;;;;;73.35;27.25;;;2.20;99.90;;;;;;4973232;28;20030;-84
2021/12/20 00:27:45;;;;;;;75.45;28.30;;;2.10;99.90;;;;;;4972961;28;20033;-84
2021/12/20 00:30:11;;;;;;;79.03;29.20;;;2.10;99.90;;;;;;4974369;28;20479;-84
2021/12/20 00:32:37;;;;;;;85.78;29.02;;;2.10;99.90;;;;;;4973757;28;20027;-85
2021/12/20 00:35:04;;;;;;;83.50;31.02;;;2.10;99.90;;;;;;4973302;28;20115;-85
2021/12/20 00:40:21;;;;;;;92.63;32.15;;;2.10;99.90;;;;;;4957697;28;20038;-84
2021/12/20 00:42:58;;;;;;;97.05;30.60;;;2.10;99.90;;;;;;4973114;28;20130;-84
2021/12/20 00:45:27;;;;;;;90.72;30.65;;;2.10;99.90;;;;;;4973114;28;20042;-84
2021/12/20 00:47:53;;;;;;;95.85;33.33;;;2.10;99.90;;;;;;4957263;28;20035;-85
2021/12/20 00:50:20;;;;;;;94.88;33.70;;;2.10;99.90;;;;;;4973508;28;20049;-85
2021/12/20 00:52:47;;;;;;;99.78;33.75;;;2.10;99.90;;;;;;4957406;28;20054;-84
2021/12/20 00:55:16;;;;;;;110.30;36.15;;;2.10;99.90;;;;;;4972849;28;20034;-84
2021/12/20 00:57:46;;;;;;;104.60;34.90;;;2.10;99.90;;;;;;4972865;28;20116;-84
2021/12/20 01:00:14;;;;;;;106.20;32.88;;;2.10;99.90;;;;;;4973119;28;20592;-84
2021/12/20 01:02:40;;;;;;;117.60;35.45;;;2.10;99.90;;;;;;4957253;28;20062;-84
2021/12/20 01:05:07;;;;;;;114.95;37.38;;;2.00;99.90;;;;;;4972695;28;20026;-84
2021/12/20 01:07:32;;;;;;;116.68;36.67;;;2.00;99.90;;;;;;4972890;28;20031;-84
2021/12/20 01:10:02;;;;;;;118.65;36.53;;;2.00;99.90;;;;;;4972706;28;20509;-84
2021/12/20 01:12:33;;;;;;;116.25;36.45;;;2.10;99.90;;;;;;4972972;28;20034;-84
2021/12/20 01:15:00;;;;;;;114.45;33.67;;;2.10;99.90;;;;;;4972638;28;20034;-84
2021/12/20 01:17:26;;;;;;;116.43;35.65;;;2.10;99.90;;;;;;4972697;28;20034;-84
2021/12/20 01:19:52;;;;;;;106.00;34.10;;;2.10;99.90;;;;;;4972789;28;20046;-84
2021/12/20 01:22:18;;;;;;;109.28;35.08;;;2.10;99.90;;;;;;4972930;28;20046;-84
2021/12/20 01:24:44;;;;;;;128.57;37.13;;;2.10;99.90;;;;;;4972763;28;20374;-84
2021/12/20 01:27:09;;;;;;;108.25;35.08;;;2.10;99.90;;;;;;4956879;28;20035;-85
2021/12/20 01:29:35;;;;;;;118.57;38.42;;;2.00;99.90;;;;;;4973290;28;20034;-84
2021/12/20 01:32:01;;;;;;;123.18;36.15;;;2.10;99.90;;;;;;4974125;28;20039;-84
2021/12/20 01:34:26;;;;;;;120.82;36.15;;;2.10;99.90;;;;;;4972904;28;20031;-85
2021/12/20 01:36:52;;;;;;;115.28;36.13;;;2.10;99.90;;;;;;4972735;28;20084;-84
2021/12/20 01:39:18;;;;;;;131.07;37.20;;;2.10;99.90;;;;;;4973774;28;20039;-84
2021/12/20 01:41:45;;;;;;;120.47;38.70;;;2.10;99.90;;;;;;4976070;28;20463;-84
2021/12/20 01:44:12;;;;;;;114.00;35.83;;;2.10;99.90;;;;;;4976347;28;20542;-84
2021/12/20 01:46:38;;;;;;;100.10;34.25;;;2.10;99.90;;;;;;4976382;28;20023;-84
2021/12/20 01:49:08;;;;;;;121.55;39.28;;;2.10;99.90;;;;;;4976433;28;20034;-85
2021/12/20 01:54:00;;;;;;;126.95;42.75;;;2.10;99.90;;;;;;4960044;28;20466;-83
2021/12/20 01:56:27;;;;;;;113.72;34.95;;;2.10;99.90;;;;;;4976079;28;20511;-84
2021/12/20 01:59:04;;;;;;;113.45;36.90;;;2.10;99.90;;;;;;4976055;28;20035;-84
2021/12/20 02:01:30;;;;;;;100.68;36.00;;;2.10;99.90;;;;;;4976079;28;20031;-85
2021/12/20 02:03:59;;;;;;;128.02;38.28;;;2.20;99.90;;;;;;4975831;28;20475;-84
2021/12/20 02:08:54;;;;;;;119.97;39.08;;;2.20;99.90;;;;;;4960012;28;20133;-84
2021/12/20 02:11:21;;;;;;;121.78;38.85;;;2.20;99.90;;;;;;4976074;28;20430;-85
2021/12/20 02:13:47;;;;;;;118.40;35.58;;;2.20;99.90;;;;;;4976018;28;20031;-85
2021/12/20 02:16:13;;;;;;;118.15;35.45;;;2.10;99.90;;;;;;4975890;28;20039;-84
2021/12/20 02:18:39;;;;;;;115.43;35.97;;;2.10;99.90;;;;;;4975505;28;20045;-85
2021/12/20 02:21:06;;;;;;;119.82;35.38;;;2.20;99.90;;;;;;4975690;28;20026;-84
2021/12/20 02:23:32;;;;;;;116.43;32.28;;;2.20;99.90;;;;;;4975775;28;20027;-84
2021/12/20 02:26:00;;;;;;;90.68;30.20;;;2.10;99.90;;;;;;4975680;28;20038;-84
2021/12/20 02:28:25;;;;;;;92.57;32.30;;;2.10;99.90;;;;;;4975738;28;20034;-85
2021/12/20 02:38:51;;;;;;;110.53;35.80;;;2.20;99.90;;;;;;4959375;28;20054;-85
2021/12/20 02:41:29;;;;;;;118.40;39.50;;;2.20;99.90;;;;;;4975239;28;20094;-85
2021/12/20 02:43:58;;;;;;;159.55;46.97;;;2.20;99.90;;;;;;4975020;28;20050;-84
2021/12/20 02:48:53;;;;;;;120.95;37.30;;;2.10;99.90;;;;;;4959139;28;20035;-85
2021/12/20 02:51:18;;;;;;;131.93;37.38;;;2.10;99.90;;;;;;4974360;28;20035;-84
2021/12/20 02:53:44;;;;;;;133.80;38.03;;;2.00;99.90;;;;;;4974861;28;20034;-85
2021/12/20 02:56:10;;;;;;;110.03;33.85;;;2.00;99.90;;;;;;4974836;28;20134;-84
2021/12/20 02:58:35;;;;;;;139.40;38.45;;;2.10;99.90;;;;;;4974761;28;20077;-84
2021/12/20 03:01:01;;;;;;;145.48;38.58;;;2.10;99.90;;;;;;4974946;28;20035;-85
2021/12/20 03:03:27;;;;;;;142.10;39.70;;;2.10;99.90;;;;;;4974761;28;20031;-84
2021/12/20 03:05:53;;;;;;;135.65;38.03;;;2.00;99.90;;;;;;4974999;28;20031;-85
2021/12/20 03:08:23;;;;;;;148.13;38.13;;;2.00;99.90;;;;;;4974910;28;20049;-84
2021/12/20 03:10:49;;;;;;;143.13;39.28;;;2.00;99.90;;;;;;4974926;28;20034;-85
2021/12/20 03:13:15;;;;;;;146.32;39.95;;;2.00;99.90;;;;;;4974670;28;20035;-84
2021/12/20 03:15:41;;;;;;;133.20;36.08;;;2.00;99.90;;;;;;4974847;28;20050;-85
2021/12/20 03:18:07;;;;;;;118.15;36.65;;;2.10;99.90;;;;;;4974849;28;20487;-83
2021/12/20 03:20:33;;;;;;;105.00;35.03;;;2.10;99.90;;;;;;4974879;28;20031;-84
2021/12/20 03:22:59;;;;;;;111.07;34.90;;;2.10;99.90;;;;;;4974748;28;20114;-85
2021/12/20 03:25:25;;;;;;;108.18;33.28;;;2.10;99.90;;;;;;4974441;28;20056;-84
2021/12/20 03:27:51;;;;;;;128.32;35.95;;;2.10;99.90;;;;;;4974419;28;20058;-85
2021/12/20 03:30:17;;;;;;;107.88;33.67;;;2.10;99.90;;;;;;4974767;28;20042;-85
2021/12/20 03:32:52;;;;;;;114.70;34.72;;;2.00;99.90;;;;;;4974510;28;20482;-85
2021/12/20 03:35:18;;;;;;;108.75;34.38;;;2.00;99.90;;;;;;4974187;28;20031;-84
2021/12/20 03:37:44;;;;;;;104.22;32.92;;;2.00;99.90;;;;;;4974179;28;20095;-84
2021/12/20 03:40:11;;;;;;;105.47;32.40;;;2.00;99.90;;;;;;4973890;28;20077;-84
2021/12/20 03:42:41;;;;;;;95.15;31.60;;;2.10;99.90;;;;;;4974126;28;20459;-85
2021/12/20 03:45:07;;;;;;;112.38;33.13;;;2.10;99.90;;;;;;4974027;28;20030;-85
2021/12/20 03:47:33;;;;;;;102.28;32.17;;;2.10;99.90;;;;;;4974454;28;20896;-85
2021/12/20 03:49:58;;;;;;;93.53;31.17;;;2.10;99.90;;;;;;4974173;28;20149;-84
2021/12/20 03:52:24;;;;;;;103.10;31.00;;;2.10;99.90;;;;;;4974077;28;20038;-85
2021/12/20 03:54:50;;;;;;;111.40;32.05;;;2.00;99.90;;;;;;4974222;28;20030;-84
2021/12/20 03:57:15;;;;;;;89.03;31.50;;;2.00;99.90;;;;;;4974124;28;20172;-84
2021/12/20 03:59:42;;;;;;;94.53;30.10;;;2.00;99.90;;;;;;4973719;28;20027;-84
2021/12/20 04:02:08;;;;;;;102.95;34.03;;;2.00;99.90;;;;;;4973470;28;20368;-84
2021/12/20 04:04:34;;;;;;;106.80;35.35;;;2.00;99.90;;;;;;4973148;28;20488;-84
2021/12/20 04:06:59;;;;;;;94.50;34.33;;;2.00;99.90;;;;;;4973556;28;20101;-84
2021/12/20 04:09:25;;;;;;;93.53;32.15;;;2.00;99.90;;;;;;4974005;28;20034;-84
2021/12/20 04:11:51;;;;;;;97.30;30.48;;;2.00;99.90;;;;;;4973950;28;20483;-85
2021/12/20 04:14:17;;;;;;;98.78;32.67;;;2.10;99.90;;;;;;4973137;28;20026;-84
2021/12/20 04:16:42;;;;;;;95.32;32.03;;;2.00;99.90;;;;;;4974900;28;20031;-84
2021/12/20 04:19:08;;;;;;;81.65;28.88;;;2.10;99.90;;;;;;4973720;28;20398;-84
2021/12/20 04:21:37;;;;;;;106.10;32.70;;;2.00;99.90;;;;;;4974040;28;20110;-85
2021/12/20 04:24:02;;;;;;;100.72;30.13;;;2.10;99.90;;;;;;4973488;28;20035;-85
2021/12/20 04:26:28;;;;;;;83.88;28.10;;;2.00;99.90;;;;;;4973449;28;20502;-84
2021/12/20 04:28:54;;;;;;;86.82;28.38;;;2.00;99.90;;;;;;4973619;28;20045;-84
2021/12/20 04:31:19;;;;;;;98.00;28.88;;;2.00;99.90;;;;;;4973419;28;20058;-84
2021/12/20 04:33:45;;;;;;;94.00;29.17;;;2.00;99.90;;;;;;4974742;28;20494;-84
2021/12/20 04:36:11;;;;;;;82.35;27.35;;;2.00;99.90;;;;;;4973558;28;20387;-84
2021/12/20 04:38:37;;;;;;;98.75;31.33;;;2.00;99.90;;;;;;4973393;28;20027;-84
2021/12/20 04:41:02;;;;;;;95.85;29.58;;;2.00;99.90;;;;;;4973238;28;20031;-84
2021/12/20 04:43:28;;;;;;;95.85;29.42;;;2.00;99.90;;;;;;4972899;28;20046;-84
2021/12/20 04:45:54;;;;;;;108.10;31.52;;;2.00;99.90;;;;;;4973562;28;20038;-84
2021/12/20 04:48:20;;;;;;;101.97;30.25;;;2.00;99.90;;;;;;4973459;28;20046;-84
2021/12/20 04:50:46;;;;;;;97.63;30.98;;;2.10;99.90;;;;;;4973782;28;20130;-85
2021/12/20 04:53:11;;;;;;;108.15;32.58;;;2.10;99.90;;;;;;4973060;28;20796;-84
2021/12/20 04:55:37;;;;;;;101.22;34.00;;;2.10;99.90;;;;;;4973086;28;20042;-85
2021/12/20 04:58:15;;;;;;;107.47;32.20;;;2.10;99.90;;;;;;4973091;28;20434;-85
2021/12/20 05:00:43;;;;;;;119.57;33.55;;;2.10;99.90;;;;;;4972944;28;20049;-85
2021/12/20 05:03:09;;;;;;;91.90;30.40;;;2.10;99.90;;;;;;4972836;28;20037;-85
2021/12/20 05:05:35;;;;;;;99.13;33.70;;;2.20;99.90;;;;;;4973301;28;20121;-84
2021/12/20 05:08:01;;;;;;;100.50;32.28;;;2.20;99.90;;;;;;4973037;28;20121;-84
2021/12/20 05:10:34;;;;;;;94.00;31.77;;;2.20;99.90;;;;;;4973013;28;20082;-84
2021/12/20 05:13:07;;;;;;;95.00;31.17;;;2.20;99.90;;;;;;4973287;28;20042;-85
2021/12/20 05:15:34;;;;;;;108.78;34.22;;;2.20;99.90;;;;;;4975608;28;20049;-85
2021/12/20 05:18:00;;;;;;;93.97;31.90;;;2.10;99.90;;;;;;4976625;28;20748;-84
2021/12/20 05:20:26;;;;;;;93.28;30.30;;;2.10;99.90;;;;;;4976956;28;20459;-84
2021/12/20 05:22:53;;;;;;;90.40;31.20;;;2.20;99.90;;;;;;4976746;28;20035;-85
2021/12/20 05:25:19;;;;;;;95.22;30.75;;;2.10;99.90;;;;;;4976396;28;20490;-84
2021/12/20 05:27:46;;;;;;;93.55;30.02;;;2.10;99.90;;;;;;4976480;28;20121;-84
2021/12/20 05:30:13;;;;;;;99.10;30.05;;;2.20;99.90;;;;;;4976887;28;20031;-85
2021/12/20 05:32:39;;;;;;;91.50;30.23;;;2.20;99.90;;;;;;4976736;28;20170;-85
2021/12/20 05:35:15;;;;;;;88.47;29.02;;;2.20;99.90;;;;;;4976010;28;20190;-85
2021/12/20 05:37:41;;;;;;;96.82;29.83;;;2.10;99.90;;;;;;4976707;28;20078;-85
2021/12/20 05:40:10;;;;;;;78.45;26.45;;;2.10;99.90;;;;;;4975734;28;20050;-85
2021/12/20 05:42:36;;;;;;;90.30;24.75;;;2.20;99.90;;;;;;4975482;28;20116;-85
2021/12/20 05:45:04;;;;;;;82.82;25.33;;;2.10;99.90;;;;;;4975668;28;20546;-85
2021/12/20 05:47:30;;;;;;;75.50;25.08;;;2.10;99.90;;;;;;4976031;28;20033;-86
2021/12/20 05:49:56;;;;;;;87.07;26.48;;;2.10;99.90;;;;;;4977101;28;20030;-85
2021/12/20 05:52:21;;;;;;;77.32;24.35;;;2.10;99.90;;;;;;4975445;28;20036;-84
2021/12/20 05:54:47;;;;;;;76.88;25.08;;;2.10;99.90;;;;;;4946097;28;20682;-85
2021/12/20 05:57:13;;;;;;;77.43;26.23;;;2.10;99.90;;;;;;4975573;28;20525;-84
2021/12/20 05:59:39;;;;;;;83.53;27.40;;;2.20;99.90;;;;;;4975399;28;20030;-84
2021/12/20 06:02:05;;;;;;;76.70;27.92;;;2.20;99.90;;;;;;4975563;28;20030;-85
2021/12/20 06:04:31;;;;;;;84.53;28.58;;;2.30;99.90;;;;;;4975257;28;20482;-85
2021/12/20 06:06:57;;;;;;;86.03;27.58;;;2.20;99.90;;;;;;4975586;28;20038;-86
2021/12/20 06:09:23;;;;;;;77.80;27.75;;;2.20;99.90;;;;;;4974839;28;20035;-85
2021/12/20 06:11:49;;;;;;;82.22;27.73;;;2.10;99.90;;;;;;4975016;28;20475;-85
2021/12/20 06:14:15;;;;;;;79.20;26.95;;;2.10;99.90;;;;;;4974537;28;20073;-86
2021/12/20 06:16:40;;;;;;;81.18;27.45;;;2.10;99.90;;;;;;4974719;28;20081;-85
2021/12/20 06:19:07;;;;;;;80.15;28.88;;;2.20;99.90;;;;;;4958832;28;20038;-85
2021/12/20 06:21:33;;;;;;;82.13;29.65;;;2.20;99.90;;;;;;4974856;28;20030;-86
2021/12/20 06:23:59;;;;;;;71.45;27.83;;;2.10;99.90;;;;;;4974229;28;20090;-85
2021/12/20 06:26:25;;;;;;;74.15;25.10;;;2.20;99.90;;;;;;4973701;28;20070;-85
2021/12/20 06:28:52;;;;;;;66.18;24.92;;;2.20;99.90;;;;;;4976110;28;20041;-85
2021/12/20 06:31:18;;;;;;;77.25;27.98;;;2.20;99.90;;;;;;4975013;28;20023;-85
2021/12/20 06:33:44;;;;;;;81.88;28.10;;;2.20;99.90;;;;;;4974908;28;20165;-85
2021/12/20 06:36:10;;;;;;;83.63;29.00;;;2.10;99.90;;;;;;4975007;28;20926;-85
2021/12/20 06:38:42;;;;;;;82.90;27.45;;;2.10;99.90;;;;;;4959209;28;20141;-85
2021/12/20 06:41:08;;;;;;;71.78;26.38;;;2.10;99.90;;;;;;4974990;28;20046;-85
2021/12/20 06:43:34;;;;;;;80.30;28.52;;;2.10;99.90;;;;;;4974209;28;20632;-85
2021/12/20 06:46:00;;;;;;;79.78;28.90;;;2.10;99.90;;;;;;4974915;28;20039;-85
2021/12/20 06:48:26;;;;;;;75.88;26.55;;;2.00;99.90;;;;;;4975186;28;20034;-85
2021/12/20 06:50:51;;;;;;;78.10;25.83;;;2.00;99.90;;;;;;4975022;28;20077;-85
2021/12/20 06:53:17;;;;;;;79.25;28.05;;;2.00;99.90;;;;;;4974665;28;20028;-85
2021/12/20 06:55:43;;;;;;;80.65;27.67;;;2.00;99.90;;;;;;4974737;28;20034;-85
2021/12/20 06:58:09;;;;;;;89.57;29.70;;;2.00;99.90;;;;;;4974577;28;20035;-85
2021/12/20 07:00:35;;;;;;;75.53;28.58;;;2.00;99.90;;;;;;4975982;28;20039;-85
2021/12/20 07:03:01;;;;;;;77.85;28.00;;;2.00;99.90;;;;;;4975432;28;20039;-86
2021/12/20 07:05:27;;;;;;;94.93;31.33;;;2.00;99.90;;;;;;4974808;28;20077;-86
2021/12/20 07:07:53;;;;;;;91.75;30.63;;;2.00;99.90;;;;;;4958746;28;20043;-84
2021/12/20 07:10:19;;;;;;;90.60;26.20;;;2.00;99.90;;;;;;4974829;28;20562;-84
2021/12/20 07:12:45;;;;;;;86.80;25.80;;;2.00;99.90;;;;;;4974436;28;20129;-85
2021/12/20 07:15:14;;;;;;;81.70;27.77;;;2.00;99.90;;;;;;4974381;28;20486;-84
2021/12/20 07:17:41;;;;;;;81.50;27.60;;;2.00;99.90;;;;;;4974506;28;20085;-83
2021/12/20 07:20:08;;;;;;;89.05;25.73;;;2.00;99.90;;;;;;4973963;28;20410;-85
2021/12/20 07:22:34;;;;;;;77.30;25.23;;;2.00;99.90;;;;;;4974190;28;20065;-85
2021/12/20 07:25:01;;;;;;;75.63;27.38;;;2.00;99.90;;;;;;4974042;28;20426;-85
2021/12/20 07:27:27;;;;;;;84.47;30.83;;;1.90;99.90;;;;;;4974298;28;20027;-85
2021/12/20 07:29:53;;;;;;;86.40;30.45;;;2.00;99.90;;;;;;4959063;28;20060;-86
2021/12/20 07:32:19;;;;;;;85.57;28.77;;;2.00;99.90;;;;;;4974218;28;20031;-85
2021/12/20 07:34:44;;;;;;;97.45;34.95;;;1.90;99.90;;;;;;4973662;28;20166;-84
2021/12/20 07:37:10;;;;;;;89.57;32.55;;;1.90;99.90;;;;;;4959748;28;20746;-85
2021/12/20 07:39:36;;;;;;;76.35;26.13;;;1.90;99.90;;;;;;4971685;28;20035;-85
2021/12/20 07:42:03;;;;;;;72.25;27.88;;;1.90;99.90;;;;;;4973437;28;20514;-84
2021/12/20 07:44:30;;;;;;;75.47;24.67;;;1.90;99.90;;;;;;4973428;28;20030;-84
2021/12/20 07:46:55;;;;;;;69.68;22.23;;;2.00;99.90;;;;;;4973998;28;20033;-84
2021/12/20 07:49:21;;;;;;;71.35;23.90;;;2.00;99.90;;;;;;4973404;28;20034;-84
2021/12/20 07:51:47;;;;;;;73.55;22.00;;;2.00;99.90;;;;;;4973925;28;20045;-83
2021/12/20 07:54:13;;;;;;;65.45;23.08;;;2.00;99.90;;;;;;4973527;28;20077;-84
2021/12/20 07:56:40;;;;;;;68.93;21.15;;;2.00;99.90;;;;;;4973263;28;20031;-85
2021/12/20 07:59:58;;;;;;;71.30;21.35;;;2.00;99.90;;;;;;4957433;28;20035;-84
2021/12/20 08:02:24;;;;;;;69.68;22.60;;;2.00;99.90;;;;;;4941546;28;20474;-83
2021/12/20 08:04:51;;;;;;;64.60;21.00;;;2.10;99.90;;;;;;4973647;28;20046;-85
2021/12/20 08:07:18;;;;;;;58.38;19.83;;;2.10;99.90;;;;;;4973338;28;20394;-85
2021/12/20 08:09:44;;;;;;;61.97;17.50;;;2.20;99.90;;;;;;4957176;28;20430;-85
2021/12/20 08:12:10;;;;;;;57.95;17.98;;;2.10;99.90;;;;;;4973139;28;20045;-85
2021/12/20 08:14:36;;;;;;;52.83;17.00;;;2.20;99.90;;;;;;4973471;28;20038;-85
2021/12/20 08:17:02;;;;;;;58.53;18.67;;;2.20;99.90;;;;;;4973247;28;20026;-84
2021/12/20 08:19:28;;;;;;;57.20;18.40;;;2.20;99.90;;;;;;4973328;28;20034;-85
2021/12/20 08:21:54;;;;;;;48.03;14.63;;;2.30;99.90;;;;;;4973090;28;20030;-85
2021/12/20 08:24:20;;;;;;;45.50;15.68;;;2.30;99.90;;;;;;4973836;28;20050;-85
2021/12/20 08:26:47;;;;;;;45.80;15.05;;;2.30;99.90;;;;;;4973645;28;20666;-85
2021/12/20 08:29:13;;;;;;;40.28;14.48;;;2.20;99.90;;;;;;4973269;28;20537;-85
2021/12/20 08:31:39;;;;;;;45.53;14.93;;;2.30;99.90;;;;;;4974048;28;20060;-85
2021/12/20 08:34:05;;;;;;;44.50;14.82;;;2.20;99.90;;;;;;4973267;28;20099;-85
2021/12/20 08:36:31;;;;;;;46.28;16.05;;;2.20;99.90;;;;;;4973443;28;20053;-85
2021/12/20 08:38:57;;;;;;;39.38;11.77;;;2.20;99.90;;;;;;4973124;28;20034;-85
2021/12/20 08:41:23;;;;;;;32.50;11.60;;;2.20;99.90;;;;;;4973533;28;20090;-85
2021/12/20 08:43:49;;;;;;;39.78;13.55;;;2.20;99.90;;;;;;4973393;28;20023;-85
2021/12/20 08:46:16;;;;;;;35.90;12.85;;;2.20;99.90;;;;;;4973010;28;20471;-84
2021/12/20 08:48:45;;;;;;;44.63;10.95;;;2.10;99.90;;;;;;4972792;28;20039;-84
2021/12/20 08:51:12;;;;;;;33.38;10.98;;;2.10;99.90;;;;;;4976946;28;20035;-85
2021/12/20 08:53:40;;;;;;;32.90;10.43;;;2.10;99.90;;;;;;4977039;28;20505;-85
2021/12/20 08:56:06;;;;;;;31.17;9.93;;;2.00;99.90;;;;;;4977209;28;20561;-84
2021/12/20 08:58:32;;;;;;;26.60;10.10;;;2.00;99.90;;;;;;4977323;28;20471;-84
2021/12/20 09:00:58;;;;;;;38.53;10.85;;;2.00;99.90;;;;;;4960794;28;20125;-85
2021/12/20 09:03:25;;;;;;;34.17;10.45;;;1.90;99.90;;;;;;4976964;28;20148;-85
2021/12/20 09:05:52;;;;;;;36.60;10.45;;;1.80;99.90;;;;;;4977151;28;20414;-85
2021/12/20 09:08:19;;;;;;;39.40;10.63;;;1.80;99.90;;;;;;4976945;28;20027;-86
2021/12/20 09:10:46;;;;;;;40.42;10.93;;;1.70;99.90;;;;;;4976839;28;20031;-84
2021/12/20 09:13:11;;;;;;;35.65;10.93;;;1.70;99.90;;;;;;4976364;28;20026;-85
2021/12/20 09:15:37;;;;;;;28.35;9.57;;;1.70;99.90;;;;;;4976643;28;20089;-85
2021/12/20 09:18:05;;;;;;;25.50;8.73;;;1.70;99.90;;;;;;4976501;28;20035;-85
2021/12/20 09:20:31;;;;;;;26.80;8.57;;;1.70;99.90;;;;;;4976555;28;20031;-85
2021/12/20 09:23:04;;;;;;;25.17;9.27;;;1.80;99.90;;;;;;4976742;28;20026;-85
2021/12/20 09:25:32;;;;;;;39.40;9.45;;;1.90;99.90;;;;;;4976472;28;20037;-85
2021/12/20 09:27:59;;;;;;;25.70;9.00;;;1.90;99.90;;;;;;4976348;28;20403;-85
2021/12/20 09:30:28;;;;;;;30.83;8.93;;;1.90;99.90;;;;;;4976324;28;20042;-85
2021/12/20 09:32:54;;;;;;;30.63;9.25;;;2.00;99.90;;;;;;4976208;28;20034;-84
2021/12/20 09:35:20;;;;;;;29.80;9.10;;;2.00;99.90;;;;;;4976164;28;20549;-84
2021/12/20 09:37:53;;;;;;;22.35;8.52;;;2.10;99.90;;;;;;4976421;28;20027;-85
2021/12/20 09:40:32;;;;;;;29.83;8.27;;;2.30;99.90;;;;;;4975821;28;20070;-85
2021/12/20 09:43:05;;;;;;;28.52;7.93;;;2.40;99.90;;;;;;4975972;28;20031;-84
2021/12/20 09:45:31;;;;;;;29.70;7.55;;;2.90;99.90;;;;;;4976002;28;20397;-85
2021/12/20 09:47:57;;;;;;;18.33;6.10;;;3.90;99.90;;;;;;4976120;28;20041;-86
2021/12/20 09:50:23;;;;;;;21.40;6.68;;;4.80;99.90;;;;;;4976356;28;20545;-84
2021/12/20 09:52:49;;;;;;;17.65;5.07;;;5.80;99.90;;;;;;4975861;28;20117;-83
2021/12/20 09:55:16;;;;;;;20.55;5.78;;;6.30;99.90;;;;;;4975987;28;20054;-84
2021/12/20 09:57:45;;;;;;;25.27;5.03;;;6.60;99.90;;;;;;4976156;28;20447;-84
2021/12/20 10:00:13;;;;;;;13.38;4.95;;;7.00;99.90;;;;;;4975835;28;20069;-86
2021/12/20 10:02:46;;;;;;;16.17;7.75;;;7.20;99.90;;;;;;4977754;28;20061;-85
2021/12/20 10:05:13;;;;;;;24.13;5.00;;;7.40;99.90;;;;;;4959914;28;20027;-86
2021/12/20 10:07:41;;;;;;;20.25;5.53;;;7.10;99.90;;;;;;4976461;28;20042;-86
2021/12/20 10:10:10;;;;;;;22.23;4.88;;;6.50;99.90;;;;;;4976405;28;20031;-85
2021/12/20 10:12:47;;;;;;;18.10;4.80;;;6.10;99.90;;;;;;4976107;28;20035;-86
2021/12/20 10:15:15;;;;;;;18.38;5.63;;;6.20;99.90;;;;;;4975847;28;20077;-86
2021/12/20 10:17:52;;;;;;;14.55;5.55;;;6.40;99.90;;;;;;4975931;28;20045;-87
2021/12/20 10:20:22;;;;;;;18.23;5.07;;;6.40;99.90;;;;;;4943842;28;20053;-85
2021/12/20 10:22:48;;;;;;;15.43;4.35;;;6.30;99.90;;;;;;4959847;28;20509;-86
2021/12/20 10:25:23;;;;;;;18.77;6.00;;;6.30;99.90;;;;;;4959769;28;20037;-85
2021/12/20 10:27:48;;;;;;;25.17;5.18;;;6.40;99.90;;;;;;4976031;28;20058;-86
2021/12/20 10:30:24;;;;;;;23.67;9.27;;;6.50;99.90;;;;;;4976890;28;20027;-87
2021/12/20 10:32:49;;;;;;;39.33;10.55;;;6.40;99.90;;;;;;4973665;28;20042;-86
2021/12/20 10:35:38;;;;;;;18.20;6.25;;;6.30;99.90;;;;;;4959087;28;20039;-87
2021/12/20 10:38:19;;;;;;;33.00;8.38;;;6.30;99.90;;;;;;4943763;28;20126;-86
2021/12/20 10:40:53;;;;;;;23.05;6.13;;;6.10;99.90;;;;;;4975005;28;20069;-86
2021/12/20 10:43:25;;;;;;;21.45;5.47;;;5.80;99.90;;;;;;4975425;28;20089;-86
2021/12/20 10:45:53;;;;;;;17.48;5.10;;;5.50;99.90;;;;;;4959189;28;20045;-86
2021/12/20 10:48:19;;;;;;;20.23;7.47;;;5.20;99.90;;;;;;4976105;28;20146;-85
2021/12/20 10:50:45;;;;;;;14.35;5.57;;;4.90;99.90;;;;;;4974662;28;20049;-85
2021/12/20 10:53:16;;;;;;;29.98;7.82;;;4.70;99.90;;;;;;4975015;28;20026;-86
2021/12/20 10:55:48;;;;;;;13.43;5.25;;;4.50;99.90;;;;;;4974984;28;20038;-86
2021/12/20 10:58:29;;;;;;;21.50;5.28;;;4.30;99.90;;;;;;4975026;28;20070;-86
2021/12/20 11:01:01;;;;;;;20.65;4.97;;;4.20;99.90;;;;;;4974656;28;20044;-85
2021/12/20 11:03:29;;;;;;;12.57;4.40;;;4.00;99.90;;;;;;4958600;28;20041;-86
2021/12/20 11:06:44;;;;;;;17.75;4.50;;;4.10;99.90;;;;;;4974757;28;20666;-86
2021/12/20 11:11:34;;;;;;;18.23;4.15;;;4.70;99.90;;;;;;4974358;28;20027;-86
2021/12/20 11:14:03;;;;;;;14.20;3.83;;;4.50;99.90;;;;;;4942400;28;20027;-86
2021/12/20 11:16:41;;;;;;;20.58;4.70;;;4.30;99.90;;;;;;4975153;28;20390;-86
2021/12/20 11:19:06;;;;;;;21.20;4.15;;;4.00;99.90;;;;;;4974760;28;20034;-86
2021/12/20 11:21:33;;;;;;;25.23;7.00;;;3.70;99.90;;;;;;4974124;28;20403;-87
2021/12/20 11:24:00;;;;;;;40.85;17.52;;;3.50;99.90;;;;;;4974631;28;20022;-86
2021/12/20 11:26:29;;;;;;;25.00;7.65;;;3.30;99.90;;;;;;4974434;28;20069;-87
2021/12/20 11:28:56;;;;;;;22.25;5.78;;;3.10;99.90;;;;;;4958641;28;20503;-86
2021/12/20 11:31:22;;;;;;;14.38;4.57;;;2.90;99.90;;;;;;4958180;28;20032;-86
2021/12/20 11:33:48;;;;;;;18.90;4.70;;;2.70;99.90;;;;;;4974618;28;20043;-86
2021/12/20 11:36:14;;;;;;;21.38;5.18;;;2.50;99.90;;;;;;4976032;28;20034;-86
2021/12/20 11:38:40;;;;;;;31.20;5.13;;;2.40;99.90;;;;;;4974641;28;20035;-86
2021/12/20 11:41:06;;;;;;;14.35;3.80;;;2.40;99.90;;;;;;4974668;28;20089;-86
2021/12/20 11:43:33;;;;;;;17.50;3.85;;;2.90;99.90;;;;;;4974283;28;20027;-87
2021/12/20 11:45:59;;;;;;;11.00;3.75;;;3.80;99.90;;;;;;4974352;28;20031;-87
2021/12/20 11:48:33;;;;;;;15.75;4.63;;;4.70;99.90;;;;;;4958676;28;20039;-88
2021/12/20 11:50:59;;;;;;;13.80;5.00;;;5.30;99.90;;;;;;4974326;28;20029;-87
2021/12/20 11:53:35;;;;;;;23.38;6.25;;;5.60;99.90;;;;;;4974078;28;20027;-86
2021/12/20 11:56:00;;;;;;;19.90;5.90;;;5.40;99.90;;;;;;4974393;28;20042;-86
2021/12/20 11:58:29;;;;;;;20.92;5.75;;;4.90;99.90;;;;;;4957965;28;20390;-87
2021/12/20 12:00:55;;;;;;;16.42;4.82;;;4.40;99.90;;;;;;4975387;28;20035;-88
2021/12/20 12:03:38;;;;;;;26.50;4.82;;;4.10;99.90;;;;;;4974437;28;20427;-87
2021/12/20 12:06:10;;;;;;;16.00;4.05;;;3.80;99.90;;;;;;4973595;28;20434;-87
2021/12/20 12:08:40;;;;;;;23.88;6.13;;;3.50;99.90;;;;;;4975256;28;20031;-87
2021/12/20 12:11:09;;;;;;;21.50;5.05;;;3.30;99.90;;;;;;4974107;28;20031;-87
2021/12/20 12:13:57;;;;;;;25.23;5.10;;;3.10;99.90;;;;;;4974224;28;20039;-87
2021/12/20 12:16:31;;;;;;;17.20;4.97;;;3.00;99.90;;;;;;4974116;28;20074;-87
2021/12/20 12:19:01;;;;;;;24.27;4.65;;;2.80;99.90;;;;;;4941486;28;20436;-86
2021/12/20 12:21:33;;;;;;;19.95;5.07;;;2.60;99.90;;;;;;4974038;28;20027;-87
2021/12/20 12:24:03;;;;;;;;;;;2.50;99.90;;;;;;4973382;28;20034;-87
2021/12/20 12:26:34;;;;;;;20.80;5.97;;;2.40;99.90;;;;;;4974525;28;20406;-87
2021/12/20 12:29:00;;;;;;;;;;;2.40;99.90;;;;;;4973916;28;20054;-87
2021/12/20 12:31:35;;;;;;;13.75;3.42;;;2.40;99.90;;;;;;4973579;28;20322;-87
2021/12/20 12:34:09;;;;;;;18.92;4.22;;;2.50;99.90;;;;;;4941265;28;20088;-87
2021/12/20 12:36:40;;;;;;;14.00;3.95;;;2.60;99.90;;;;;;4973206;28;20631;-87
2021/12/20 12:39:27;;;;;;;14.27;3.97;;;2.80;99.90;;;;;;4973301;28;20034;-87
2021/12/20 12:41:57;;;;;;;26.00;4.20;;;2.90;99.90;;;;;;4973260;28;20061;-86
2021/12/20 12:44:32;;;;;;;16.80;3.70;;;3.10;99.90;;;;;;4973175;28;20062;-87
2021/12/20 12:47:12;;;;;;;12.77;3.20;;;3.20;99.90;;;;;;4941339;28;20023;-87
2021/12/20 12:49:46;;;;;;;6.88;2.72;;;3.30;99.90;;;;;;4973149;28;20045;-87
2021/12/20 12:52:21;;;;;;;18.77;4.38;;;3.20;99.90;;;;;;4970734;28;20086;-87
2021/12/20 12:55:06;;;;;;;20.38;4.20;;;3.30;99.90;;;;;;4972802;28;20543;-87
2021/12/20 12:57:37;;;;;;;15.38;3.70;;;3.20;99.90;;;;;;4973420;28;20058;-88
2021/12/20 13:00:19;;;;;;;18.20;4.60;;;3.10;99.90;;;;;;4973135;28;20078;-87
2021/12/20 13:02:48;;;;;;;12.77;3.80;;;3.10;99.90;;;;;;4973238;28;20038;-86